Time;durP1;ratioP1;P1;durP2;ratioP2;P2;SDS_P1;SDS_P2;PMS_P1;PMS_P2;Temp;Humidity;BMP_temperature;BMP_pressure;BME280_temperature;BME280_humidity;BME280_pressure;Samples;Min_cycle;Max_cycle;Signal;HPM_P1;HPM_P2
2023/09/24 00:02:10;;;;;;;1.20;0.80;;;11.70;99.90;;;;;;4824489;29;20078;-79
2023/09/24 00:04:36;;;;;;;1.33;0.80;;;11.70;99.90;;;;;;4839316;29;20053;-79
2023/09/24 00:07:02;;;;;;;1.02;0.73;;;11.80;99.90;;;;;;4835407;29;20049;-79
2023/09/24 00:09:28;;;;;;;0.55;0.50;;;11.70;99.90;;;;;;4858233;29;20086;-79
2023/09/24 00:11:53;;;;;;;0.98;0.77;;;11.80;99.90;;;;;;4846404;29;20041;-78
2023/09/24 00:14:19;;;;;;;0.70;0.70;;;11.70;99.90;;;;;;4857796;29;20045;-78
2023/09/24 00:16:45;;;;;;;1.00;0.80;;;11.80;99.90;;;;;;4860032;29;20128;-78
2023/09/24 00:19:10;;;;;;;0.85;0.70;;;11.70;99.90;;;;;;4856424;29;20516;-79
2023/09/24 00:21:36;;;;;;;1.10;0.80;;;11.60;99.90;;;;;;4850664;29;20041;-79
2023/09/24 00:24:03;;;;;;;0.60;0.60;;;11.60;99.90;;;;;;4859410;29;20049;-78
2023/09/24 00:26:29;;;;;;;0.85;0.63;;;11.60;99.90;;;;;;4857522;29;20057;-79
2023/09/24 00:28:56;;;;;;;0.95;0.63;;;11.50;99.90;;;;;;4841191;29;20049;-79
2023/09/24 00:31:22;;;;;;;0.73;0.70;;;11.50;99.90;;;;;;4848026;29;20053;-79
2023/09/24 00:33:48;;;;;;;0.82;0.70;;;11.50;99.90;;;;;;4847886;29;20059;-79
2023/09/24 00:36:16;;;;;;;0.77;0.65;;;11.50;99.90;;;;;;4836520;29;20603;-79
2023/09/24 00:38:41;;;;;;;0.82;0.70;;;11.50;99.90;;;;;;4843887;29;20060;-79
2023/09/24 00:41:07;;;;;;;0.98;0.80;;;11.50;99.90;;;;;;4855845;29;20052;-79
2023/09/24 00:43:34;;;;;;;0.88;0.63;;;11.40;99.90;;;;;;4841610;29;20049;-80
2023/09/24 00:46:07;;;;;;;1.15;0.80;;;11.30;99.90;;;;;;4846664;29;20056;-79
2023/09/24 00:48:33;;;;;;;1.30;0.70;;;11.30;99.90;;;;;;4834233;29;20121;-79
2023/09/24 00:51:01;;;;;;;0.60;0.57;;;11.30;99.90;;;;;;4829262;29;20093;-79
2023/09/24 00:53:29;;;;;;;0.80;0.65;;;11.30;99.90;;;;;;4850114;29;20057;-79
2023/09/24 00:55:56;;;;;;;1.10;0.70;;;11.10;99.90;;;;;;4848813;29;20162;-79
2023/09/24 00:58:26;;;;;;;0.75;0.70;;;11.10;99.90;;;;;;4835906;29;20049;-80
2023/09/24 01:00:54;;;;;;;0.70;0.60;;;11.10;99.90;;;;;;4837311;29;20118;-79
2023/09/24 01:03:23;;;;;;;1.08;0.80;;;11.10;99.90;;;;;;4837787;29;20044;-79
2023/09/24 01:05:50;;;;;;;1.27;0.73;;;11.10;99.90;;;;;;4839104;29;20060;-79
2023/09/24 01:08:21;;;;;;;1.30;0.88;;;11.00;99.90;;;;;;4836486;29;20069;-79
2023/09/24 01:10:47;;;;;;;1.38;0.80;;;11.10;99.90;;;;;;4852171;29;20049;-79
2023/09/24 01:13:20;;;;;;;1.15;0.88;;;10.90;99.90;;;;;;4852761;29;20041;-79
2023/09/24 01:15:50;;;;;;;1.23;0.80;;;11.00;99.90;;;;;;4850737;29;20041;-79
2023/09/24 01:18:20;;;;;;;1.25;0.90;;;11.00;99.90;;;;;;4848783;29;20354;-79
2023/09/24 01:20:47;;;;;;;1.40;0.98;;;11.00;99.90;;;;;;4854887;29;20044;-79
2023/09/24 01:23:14;;;;;;;1.48;0.93;;;10.80;99.90;;;;;;4839755;29;20041;-79
2023/09/24 01:25:42;;;;;;;1.65;0.90;;;10.90;99.90;;;;;;4841515;29;20056;-79
2023/09/24 01:28:08;;;;;;;1.20;0.80;;;10.80;99.90;;;;;;4844246;29;20120;-79
2023/09/24 01:30:34;;;;;;;1.80;1.00;;;10.80;99.90;;;;;;4851760;29;20128;-79
2023/09/24 01:33:01;;;;;;;1.10;0.73;;;10.80;99.90;;;;;;4857870;29;20041;-80
2023/09/24 01:35:32;;;;;;;1.55;0.95;;;10.80;99.90;;;;;;4856839;29;20493;-79
2023/09/24 01:38:03;;;;;;;1.52;1.10;;;10.80;99.90;;;;;;4834027;29;20081;-79
2023/09/24 01:40:30;;;;;;;1.00;0.90;;;10.80;99.90;;;;;;4847775;29;20053;-79
2023/09/24 01:43:00;;;;;;;1.30;0.80;;;10.70;99.90;;;;;;4852289;29;20377;-79
2023/09/24 01:45:26;;;;;;;0.90;0.75;;;10.60;99.90;;;;;;4855689;29;20053;-79
2023/09/24 01:47:52;;;;;;;1.00;0.80;;;10.50;99.90;;;;;;4854459;29;20052;-79
2023/09/24 01:50:18;;;;;;;0.93;0.70;;;10.60;99.90;;;;;;4853385;29;20042;-79
2023/09/24 01:52:45;;;;;;;0.73;0.65;;;10.70;99.90;;;;;;4848975;29;20409;-79
2023/09/24 01:55:19;;;;;;;0.98;0.60;;;10.60;99.90;;;;;;4854270;29;20049;-80
2023/09/24 01:57:45;;;;;;;1.20;0.82;;;10.60;99.90;;;;;;4854920;29;20066;-80
2023/09/24 02:00:13;;;;;;;1.67;0.90;;;10.60;99.90;;;;;;4843036;29;20040;-79
2023/09/24 02:02:39;;;;;;;1.20;0.80;;;10.80;99.90;;;;;;4850252;29;20046;-79
2023/09/24 02:05:10;;;;;;;1.10;0.90;;;10.70;99.90;;;;;;4837449;29;20034;-79
2023/09/24 02:07:40;;;;;;;1.35;0.95;;;10.80;99.90;;;;;;4844877;29;20378;-79
2023/09/24 02:10:07;;;;;;;0.90;0.80;;;10.80;99.90;;;;;;4852873;29;20045;-79
2023/09/24 02:12:39;;;;;;;1.08;0.98;;;10.90;99.90;;;;;;4854084;29;20049;-79
2023/09/24 02:15:12;;;;;;;1.02;0.80;;;10.70;99.90;;;;;;4842703;29;20148;-79
2023/09/24 02:17:42;;;;;;;1.05;0.68;;;10.80;99.90;;;;;;4852527;29;20072;-79
2023/09/24 02:20:34;;;;;;;1.02;0.80;;;10.70;99.90;;;;;;4853166;29;20056;-79
2023/09/24 02:23:00;;;;;;;1.02;0.80;;;10.70;99.90;;;;;;4852596;29;20042;-79
2023/09/24 02:25:28;;;;;;;1.65;0.70;;;10.60;99.90;;;;;;4846070;29;20048;-79
2023/09/24 02:27:55;;;;;;;1.10;0.75;;;10.60;99.90;;;;;;4856304;29;20037;-79
2023/09/24 02:30:22;;;;;;;2.47;0.82;;;10.60;99.90;;;;;;4857943;29;20081;-79
2023/09/24 02:32:48;;;;;;;1.20;0.70;;;10.60;99.90;;;;;;4853255;29;20053;-79
2023/09/24 02:35:15;;;;;;;1.35;0.70;;;10.80;99.90;;;;;;4850734;29;20047;-79
2023/09/24 02:37:52;;;;;;;1.33;0.70;;;10.80;99.90;;;;;;4853813;29;20045;-79
2023/09/24 02:42:47;;;;;;;0.93;0.68;;;10.80;99.90;;;;;;4858133;29;20562;-79
2023/09/24 02:45:15;;;;;;;0.63;0.63;;;10.90;99.90;;;;;;4846148;29;20489;-79
2023/09/24 02:47:42;;;;;;;0.73;0.65;;;10.90;99.90;;;;;;4857306;29;20080;-79
2023/09/24 02:50:12;;;;;;;0.90;0.80;;;10.70;99.90;;;;;;4847613;29;20056;-79
2023/09/24 02:52:42;;;;;;;0.60;0.60;;;10.80;99.90;;;;;;4853615;29;20059;-79
2023/09/24 02:55:10;;;;;;;0.90;0.80;;;10.80;99.90;;;;;;4840246;29;20046;-79
2023/09/24 02:57:37;;;;;;;1.40;0.73;;;10.90;99.90;;;;;;4835326;29;20045;-80
2023/09/24 03:00:11;;;;;;;0.80;0.65;;;10.70;99.90;;;;;;4845931;29;20080;-79
2023/09/24 03:02:38;;;;;;;0.55;0.50;;;10.90;99.90;;;;;;4846117;29;20128;-79
2023/09/24 03:05:10;;;;;;;0.80;0.70;;;10.80;99.90;;;;;;4841449;29;20045;-79
2023/09/24 03:07:36;;;;;;;0.70;0.60;;;10.80;99.90;;;;;;4854655;29;20076;-79
2023/09/24 03:10:05;;;;;;;1.63;0.77;;;10.80;99.90;;;;;;4857228;29;20129;-79
2023/09/24 03:12:32;;;;;;;0.63;0.50;;;10.80;99.90;;;;;;4851214;29;20132;-79
2023/09/24 03:14:58;;;;;;;1.27;0.80;;;10.80;99.90;;;;;;4840427;29;20036;-79
2023/09/24 03:17:23;;;;;;;0.70;0.68;;;10.90;99.90;;;;;;4857195;29;20041;-79
2023/09/24 03:19:49;;;;;;;0.68;0.68;;;11.00;99.90;;;;;;4856719;29;20105;-79
2023/09/24 03:22:15;;;;;;;0.70;0.70;;;11.10;99.90;;;;;;4820914;29;20401;-79
2023/09/24 03:24:41;;;;;;;0.73;0.73;;;10.90;99.90;;;;;;4851215;29;20100;-79
2023/09/24 03:27:07;;;;;;;0.93;0.70;;;11.10;99.90;;;;;;4836696;29;20140;-79
2023/09/24 03:29:33;;;;;;;1.00;0.88;;;11.10;99.90;;;;;;4839898;29;20200;-79
2023/09/24 03:31:58;;;;;;;1.10;0.70;;;11.30;99.90;;;;;;4851156;29;20067;-79
2023/09/24 03:34:24;;;;;;;0.75;0.75;;;11.30;99.90;;;;;;4846019;29;20040;-79
2023/09/24 03:36:50;;;;;;;1.45;1.20;;;11.30;99.90;;;;;;4846183;29;20057;-79
2023/09/24 03:39:15;;;;;;;1.13;0.88;;;11.10;99.90;;;;;;4836095;29;20053;-79
2023/09/24 03:41:41;;;;;;;1.90;0.90;;;11.20;99.90;;;;;;4842994;29;20041;-79
2023/09/24 03:44:07;;;;;;;1.13;0.90;;;11.50;99.90;;;;;;4854091;29;20108;-79
2023/09/24 03:46:32;;;;;;;1.23;1.02;;;11.40;99.90;;;;;;4841382;29;20048;-79
2023/09/24 03:48:58;;;;;;;1.10;1.00;;;11.20;99.90;;;;;;4854875;29;20045;-79
2023/09/24 03:51:24;;;;;;;1.52;1.30;;;11.40;99.90;;;;;;4846382;29;20158;-79
2023/09/24 03:53:50;;;;;;;1.88;1.38;;;11.30;99.90;;;;;;4869217;29;20044;-79
2023/09/24 03:56:17;;;;;;;;;;;11.40;99.90;;;;;;4835034;29;20042;-79
2023/09/24 03:58:42;;;;;;;2.10;1.80;;;11.40;99.90;;;;;;4820080;29;19924;-79
2023/09/24 04:01:12;;;;;;;2.83;1.73;;;11.10;99.90;;;;;;4845751;29;20040;-80
2023/09/24 04:03:38;;;;;;;2.45;1.60;;;11.10;99.90;;;;;;4851822;29;20564;-79
2023/09/24 04:06:09;;;;;;;2.15;1.95;;;11.00;99.90;;;;;;4853851;29;20132;-79
2023/09/24 04:08:35;;;;;;;2.25;1.80;;;11.20;99.90;;;;;;4851750;29;20223;-79
2023/09/24 04:11:01;;;;;;;2.13;1.70;;;11.20;99.90;;;;;;4852991;29;20170;-79
2023/09/24 04:13:27;;;;;;;1.63;1.38;;;11.00;99.90;;;;;;4837458;29;20059;-79
2023/09/24 04:15:53;;;;;;;1.88;1.40;;;11.10;99.90;;;;;;4841854;29;20037;-79
2023/09/24 04:18:19;;;;;;;1.90;1.52;;;11.20;99.90;;;;;;4843981;29;20143;-79
2023/09/24 04:20:45;;;;;;;1.65;1.55;;;11.10;99.90;;;;;;4857932;29;20198;-79
2023/09/24 04:23:11;;;;;;;2.53;1.50;;;10.80;99.90;;;;;;4845969;29;20045;-79
2023/09/24 04:25:38;;;;;;;2.70;1.70;;;11.10;99.90;;;;;;4857470;29;20468;-79
2023/09/24 04:28:04;;;;;;;2.40;1.95;;;11.00;99.90;;;;;;4854352;29;20042;-79
2023/09/24 04:30:29;;;;;;;2.22;1.80;;;11.10;99.90;;;;;;4855593;29;20057;-79
2023/09/24 04:32:57;;;;;;;2.03;1.83;;;11.10;99.90;;;;;;4860615;29;20044;-79
2023/09/24 04:35:27;;;;;;;2.20;1.83;;;11.10;99.90;;;;;;4857846;29;20080;-79
2023/09/24 04:37:53;;;;;;;2.00;1.80;;;11.10;99.90;;;;;;4855142;29;20513;-79
2023/09/24 04:40:19;;;;;;;2.50;2.22;;;11.00;99.90;;;;;;4857652;29;20048;-79
2023/09/24 04:42:45;;;;;;;2.50;1.85;;;10.90;99.90;;;;;;4849796;29;20538;-79
2023/09/24 04:45:12;;;;;;;2.13;1.67;;;11.00;99.90;;;;;;4847423;29;20049;-79
2023/09/24 04:47:39;;;;;;;2.50;1.95;;;11.00;99.90;;;;;;4845133;29;20067;-79
2023/09/24 04:50:06;;;;;;;1.80;1.65;;;10.60;99.90;;;;;;4848232;29;20846;-79
2023/09/24 04:52:33;;;;;;;1.60;1.50;;;10.90;99.90;;;;;;4840960;29;20080;-79
2023/09/24 04:55:00;;;;;;;2.70;1.67;;;10.70;99.90;;;;;;4864351;29;20058;-79
2023/09/24 04:57:25;;;;;;;1.80;1.65;;;10.90;99.90;;;;;;4854699;29;20140;-79
2023/09/24 04:59:53;;;;;;;2.30;1.98;;;10.90;99.90;;;;;;4840759;29;20132;-79
2023/09/24 05:02:23;;;;;;;2.10;1.80;;;10.70;99.90;;;;;;4848736;29;20058;-79
2023/09/24 05:04:49;;;;;;;1.70;1.60;;;10.80;99.90;;;;;;4851909;29;20050;-79
2023/09/24 05:07:16;;;;;;;2.20;1.60;;;10.70;99.90;;;;;;4854430;29;20050;-78
2023/09/24 05:09:42;;;;;;;2.47;1.85;;;10.70;99.90;;;;;;4844882;29;20044;-79
2023/09/24 05:12:08;;;;;;;2.42;1.70;;;10.60;99.90;;;;;;4839277;29;20108;-78
2023/09/24 05:14:33;;;;;;;2.10;1.77;;;10.50;99.90;;;;;;4844470;29;20049;-79
2023/09/24 05:17:00;;;;;;;1.98;1.77;;;10.50;99.90;;;;;;4851351;29;20446;-78
2023/09/24 05:19:25;;;;;;;;;;;10.70;99.90;;;;;;4857946;29;20052;-79
2023/09/24 05:21:51;;;;;;;2.10;1.60;;;10.70;99.90;;;;;;4847804;29;19919;-78
2023/09/24 05:24:17;;;;;;;2.30;2.05;;;10.70;99.90;;;;;;4832642;29;20063;-77
2023/09/24 05:26:44;;;;;;;;;;;10.50;99.90;;;;;;4853776;29;20052;-77
2023/09/24 05:29:10;;;;;;;3.40;1.90;;;10.70;99.90;;;;;;4853553;29;19931;-77
2023/09/24 05:31:35;;;;;;;2.38;1.85;;;10.70;99.90;;;;;;4854075;29;20690;-77
2023/09/24 05:34:05;;;;;;;2.38;1.70;;;10.40;99.90;;;;;;4846144;29;20049;-77
2023/09/24 05:36:32;;;;;;;1.90;1.60;;;10.50;99.90;;;;;;4835898;29;20041;-77
2023/09/24 05:39:03;;;;;;;2.65;1.73;;;10.50;99.90;;;;;;4850887;29;20044;-77
2023/09/24 05:41:29;;;;;;;1.75;1.33;;;10.50;99.90;;;;;;4856076;29;20512;-77
2023/09/24 05:44:00;;;;;;;2.28;1.88;;;10.50;99.90;;;;;;4843938;29;20040;-78
2023/09/24 05:46:26;;;;;;;2.20;1.70;;;10.60;99.90;;;;;;4855480;29;20655;-78
2023/09/24 05:48:55;;;;;;;2.95;1.83;;;10.60;99.90;;;;;;4851538;29;20127;-79
2023/09/24 05:51:21;;;;;;;1.90;1.60;;;10.40;99.90;;;;;;4833621;29;20087;-79
2023/09/24 05:53:47;;;;;;;2.30;1.75;;;10.40;99.90;;;;;;4840204;29;20049;-78
2023/09/24 05:56:12;;;;;;;2.20;1.70;;;10.60;99.90;;;;;;4848608;29;20059;-78
2023/09/24 05:58:38;;;;;;;1.92;1.67;;;10.60;99.90;;;;;;4849906;29;20429;-78
2023/09/24 06:01:04;;;;;;;2.80;1.70;;;10.60;99.90;;;;;;4851432;29;20754;-79
2023/09/24 06:03:30;;;;;;;1.85;1.42;;;10.40;99.90;;;;;;4829642;29;20061;-78
2023/09/24 06:05:56;;;;;;;1.75;1.50;;;10.70;99.90;;;;;;4844388;29;20152;-78
2023/09/24 06:08:21;;;;;;;;;;;10.70;99.90;;;;;;4855578;29;20125;-78
2023/09/24 06:10:47;;;;;;;3.00;1.90;;;10.70;99.90;;;;;;4844462;29;20005;-79
2023/09/24 06:13:15;;;;;;;2.50;1.85;;;10.70;99.90;;;;;;4842570;29;20044;-79
2023/09/24 06:15:42;;;;;;;2.17;1.98;;;10.80;99.90;;;;;;4852097;29;20173;-79
2023/09/24 06:18:09;;;;;;;2.40;1.80;;;10.70;99.90;;;;;;4850601;29;20041;-79
2023/09/24 06:20:43;;;;;;;3.83;1.80;;;10.50;99.90;;;;;;4828378;29;20049;-77
2023/09/24 06:23:10;;;;;;;2.22;1.60;;;10.70;99.90;;;;;;4850262;29;20053;-80
2023/09/24 06:25:36;;;;;;;2.20;1.80;;;10.70;99.90;;;;;;4860367;29;20061;-78
2023/09/24 06:28:04;;;;;;;1.90;1.70;;;10.60;99.90;;;;;;4832957;29;20166;-78
2023/09/24 06:30:30;;;;;;;1.85;1.55;;;10.80;99.90;;;;;;4857625;29;20097;-79
2023/09/24 06:32:56;;;;;;;2.00;1.80;;;10.60;99.90;;;;;;4848857;29;20434;-79
2023/09/24 06:35:22;;;;;;;2.30;1.70;;;10.90;99.90;;;;;;4833497;29;20033;-79
2023/09/24 06:37:48;;;;;;;2.50;1.80;;;10.80;99.90;;;;;;4865561;29;20116;-79
2023/09/24 06:40:14;;;;;;;2.47;1.75;;;11.10;99.90;;;;;;4850767;29;20136;-79
2023/09/24 06:42:40;;;;;;;2.75;2.17;;;11.10;99.90;;;;;;4851048;29;20049;-79
2023/09/24 06:45:08;;;;;;;3.97;2.10;;;11.20;99.90;;;;;;4847425;29;20568;-79
2023/09/24 06:47:35;;;;;;;2.35;2.00;;;11.20;99.90;;;;;;4841416;29;20045;-79
2023/09/24 06:50:01;;;;;;;;;;;11.20;99.90;;;;;;4838018;29;20802;-79
2023/09/24 06:52:30;;;;;;;1.95;1.75;;;11.20;99.90;;;;;;4853812;29;19924;-79
2023/09/24 06:54:56;;;;;;;2.20;1.63;;;11.50;99.90;;;;;;4858146;29;20045;-79
2023/09/24 06:57:22;;;;;;;2.20;1.70;;;11.40;99.90;;;;;;4855020;29;20477;-79
2023/09/24 06:59:47;;;;;;;2.55;1.90;;;11.50;99.90;;;;;;4840306;29;20053;-78
2023/09/24 07:02:15;;;;;;;2.75;2.30;;;11.70;99.90;;;;;;4854888;29;20045;-78
2023/09/24 07:04:41;;;;;;;3.58;2.20;;;11.70;99.90;;;;;;4839426;29;20049;-79
2023/09/24 07:07:09;;;;;;;2.30;1.90;;;11.80;99.90;;;;;;4845997;29;20053;-79
2023/09/24 07:09:34;;;;;;;2.35;2.00;;;12.00;99.90;;;;;;4848747;29;20049;-79
2023/09/24 07:12:00;;;;;;;2.53;2.08;;;12.30;99.90;;;;;;4850691;29;20752;-79
2023/09/24 07:14:26;;;;;;;2.70;2.15;;;12.60;99.90;;;;;;4858906;29;20045;-79
2023/09/24 07:16:52;;;;;;;3.05;2.10;;;12.60;99.90;;;;;;4860672;29;20117;-79
2023/09/24 07:19:21;;;;;;;;;;;12.90;99.90;;;;;;4832327;29;20109;-79
2023/09/24 07:21:48;;;;;;;3.95;2.50;;;13.00;99.90;;;;;;4843445;29;20018;-79
2023/09/24 07:24:14;;;;;;;4.80;2.50;;;13.10;99.90;;;;;;4847713;29;20056;-79
2023/09/24 07:26:43;;;;;;;3.20;2.40;;;13.20;99.90;;;;;;4850520;29;20049;-79
2023/09/24 07:29:08;;;;;;;4.15;2.75;;;13.30;99.90;;;;;;4853270;29;20045;-78
2023/09/24 07:31:34;;;;;;;3.95;2.60;;;13.30;99.90;;;;;;4840937;29;20531;-79
2023/09/24 07:34:01;;;;;;;2.92;2.17;;;13.40;99.90;;;;;;4854022;29;20038;-78
2023/09/24 07:36:28;;;;;;;2.65;2.15;;;13.50;99.90;;;;;;4849667;29;20068;-79
2023/09/24 07:38:54;;;;;;;3.10;2.30;;;13.50;99.90;;;;;;4848152;29;20061;-78
2023/09/24 07:41:21;;;;;;;3.97;2.55;;;13.50;99.90;;;;;;4851522;29;20079;-78
2023/09/24 07:43:46;;;;;;;3.85;2.47;;;13.60;99.90;;;;;;4849408;29;20150;-79
2023/09/24 07:46:14;;;;;;;3.47;2.50;;;13.60;99.90;;;;;;4851579;29;20065;-78
2023/09/24 07:48:45;;;;;;;3.67;2.63;;;13.70;99.90;;;;;;4851435;29;20049;-78
2023/09/24 07:51:11;;;;;;;3.30;2.80;;;13.80;99.90;;;;;;4844932;29;20049;-79
2023/09/24 07:53:37;;;;;;;3.15;2.50;;;14.00;99.90;;;;;;4850703;29;20073;-80
2023/09/24 07:56:07;;;;;;;;;;;14.10;99.90;;;;;;4836419;29;20141;-80
2023/09/24 07:58:38;;;;;;;3.53;2.42;;;14.20;99.90;;;;;;4843761;29;19936;-80
2023/09/24 08:01:09;;;;;;;4.55;2.72;;;14.30;99.90;;;;;;4852444;29;20096;-80
2023/09/24 08:03:36;;;;;;;5.07;2.70;;;14.40;99.90;;;;;;4850793;29;20044;-80
2023/09/24 08:06:02;;;;;;;4.43;2.55;;;14.60;99.90;;;;;;4849863;29;20060;-78
2023/09/24 08:08:34;;;;;;;3.70;2.75;;;14.60;99.90;;;;;;4864123;29;20117;-79
2023/09/24 08:11:00;;;;;;;3.63;2.47;;;14.70;99.90;;;;;;4851397;29;20060;-78
2023/09/24 08:13:27;;;;;;;4.38;2.60;;;14.80;99.90;;;;;;4853226;29;20033;-78
2023/09/24 08:15:56;;;;;;;3.65;2.40;;;14.90;99.90;;;;;;4848673;29;20472;-80
2023/09/24 08:18:25;;;;;;;3.60;2.70;;;14.90;99.90;;;;;;4859495;29;20164;-79
2023/09/24 08:20:53;;;;;;;4.93;2.65;;;14.90;99.90;;;;;;4840728;29;20461;-80
2023/09/24 08:23:20;;;;;;;4.15;2.05;;;15.00;99.90;;;;;;4842726;29;20493;-80
2023/09/24 08:25:47;;;;;;;4.65;2.60;;;15.10;99.90;;;;;;4854229;29;20416;-80
2023/09/24 08:28:14;;;;;;;3.63;2.67;;;15.20;99.90;;;;;;4866144;29;20049;-80
2023/09/24 08:30:40;;;;;;;;;;;15.20;99.90;;;;;;4853329;29;20688;-80
2023/09/24 08:33:07;;;;;;;3.78;2.65;;;15.20;99.90;;;;;;4840768;29;19958;-80
2023/09/24 08:35:34;;;;;;;2.92;2.30;;;15.10;99.90;;;;;;4842750;29;20124;-79
2023/09/24 08:38:00;;;;;;;2.97;2.10;;;15.20;99.90;;;;;;4844361;29;20121;-79
2023/09/24 08:40:29;;;;;;;3.55;2.45;;;15.10;99.90;;;;;;4850563;29;20500;-80
2023/09/24 08:42:56;;;;;;;3.00;2.13;;;15.10;99.90;;;;;;4850523;29;20054;-80
2023/09/24 08:45:29;;;;;;;2.72;1.90;;;15.10;99.90;;;;;;4845590;29;20080;-80
2023/09/24 08:47:57;;;;;;;3.53;2.15;;;15.20;99.90;;;;;;4834061;29;20436;-80
2023/09/24 08:50:24;;;;;;;2.75;2.00;;;15.20;99.90;;;;;;4830047;29;20041;-80
2023/09/24 08:52:52;;;;;;;3.20;1.90;;;15.20;99.90;;;;;;4851882;29;20060;-79
2023/09/24 08:55:18;;;;;;;2.45;1.88;;;15.20;99.90;;;;;;4837659;29;20049;-80
2023/09/24 08:57:45;;;;;;;2.53;1.50;;;15.20;99.90;;;;;;4855161;29;20469;-80
2023/09/24 09:00:12;;;;;;;2.47;1.45;;;15.20;99.90;;;;;;4851850;29;20082;-79
2023/09/24 09:02:41;;;;;;;3.33;1.60;;;15.20;99.90;;;;;;4834516;29;20045;-79
2023/09/24 09:05:12;;;;;;;2.20;1.35;;;15.30;99.90;;;;;;4872459;29;20124;-80
2023/09/24 09:07:56;;;;;;;2.42;1.30;;;15.40;99.90;;;;;;4849929;29;20573;-80
2023/09/24 09:10:27;;;;;;;2.72;1.50;;;15.40;99.90;;;;;;4834174;29;20128;-80
2023/09/24 09:13:03;;;;;;;2.60;1.20;;;15.40;99.90;;;;;;4860953;29;20049;-79
2023/09/24 09:15:30;;;;;;;2.10;1.27;;;15.50;99.90;;;;;;4857402;29;20052;-80
2023/09/24 09:17:55;;;;;;;;;;;15.50;99.90;;;;;;4856152;29;20203;-80
2023/09/24 09:20:39;;;;;;;3.50;1.45;;;15.50;99.90;;;;;;4843208;29;20022;-80
2023/09/24 09:23:10;;;;;;;2.85;1.30;;;15.60;99.90;;;;;;4854922;29;20041;-80
2023/09/24 09:25:52;;;;;;;1.63;1.20;;;15.70;99.90;;;;;;4833773;29;20079;-80
2023/09/24 09:28:23;;;;;;;3.83;1.33;;;15.70;99.90;;;;;;4845834;29;20058;-80
2023/09/24 09:31:08;;;;;;;3.30;1.50;;;15.70;99.90;;;;;;4840158;29;20045;-79
2023/09/24 09:33:44;;;;;;;2.75;1.38;;;15.70;99.90;;;;;;4854303;29;20037;-80
2023/09/24 09:36:24;;;;;;;2.70;1.55;;;15.70;99.90;;;;;;4839714;29;20178;-80
2023/09/24 09:38:51;;;;;;;2.47;1.40;;;15.80;99.90;;;;;;4852521;29;20057;-79
2023/09/24 09:41:19;;;;;;;4.72;1.70;;;15.80;99.90;;;;;;4855586;29;20477;-78
2023/09/24 09:43:48;;;;;;;3.47;1.60;;;15.90;99.90;;;;;;4848902;29;20132;-78
2023/09/24 09:46:22;;;;;;;2.60;1.40;;;16.00;99.90;;;;;;4842935;29;20445;-78
2023/09/24 09:49:04;;;;;;;3.05;1.38;;;16.00;99.90;;;;;;4843474;29;20125;-79
2023/09/24 09:51:47;;;;;;;1.90;1.30;;;16.00;99.90;;;;;;4850469;29;20496;-79
2023/09/24 09:54:15;;;;;;;2.33;1.30;;;16.10;99.90;;;;;;4857646;29;20045;-78
2023/09/24 09:56:49;;;;;;;2.05;1.17;;;16.10;99.90;;;;;;4868836;29;20128;-78
2023/09/24 09:59:19;;;;;;;2.28;1.38;;;16.20;99.90;;;;;;4830486;29;20504;-78
2023/09/24 10:01:44;;;;;;;1.92;1.20;;;16.20;45.10;;;;;;4835241;29;20065;-79
2023/09/24 10:04:11;;;;;;;;;;;16.40;99.90;;;;;;4832586;29;20057;-79
2023/09/24 10:06:39;;;;;;;2.60;1.10;;;16.50;99.90;;;;;;4848112;29;20011;-78
2023/09/24 10:09:27;;;;;;;1.67;1.00;;;16.60;99.90;;;;;;4859800;29;20100;-78
2023/09/24 10:11:55;;;;;;;1.95;0.90;;;16.60;6.50;;;;;;4850549;29;20052;-79
2023/09/24 10:14:38;;;;;;;1.67;1.10;;;16.70;1.00;;;;;;4867049;29;20049;-79
2023/09/24 10:17:16;;;;;;;3.28;1.30;;;16.80;1.00;;;;;;4838677;29;20315;-78
2023/09/24 10:19:53;;;;;;;2.38;0.93;;;16.90;1.00;;;;;;4853167;29;20049;-78
2023/09/24 10:22:25;;;;;;;2.65;1.20;;;16.90;1.00;;;;;;4857757;29;20187;-77
2023/09/24 10:24:51;;;;;;;1.50;1.10;;;17.10;1.00;;;;;;4837481;29;20064;-77
2023/09/24 10:27:23;;;;;;;;;;;17.10;1.00;;;;;;4857524;29;20049;-80
2023/09/24 10:29:53;;;;;;;2.92;1.30;;;17.30;1.00;;;;;;4849096;29;19932;-79
2023/09/24 10:32:21;;;;;;;1.60;1.20;;;17.40;99.90;;;;;;4850822;29;20493;-80
2023/09/24 10:34:55;;;;;;;3.15;1.33;;;17.60;99.90;;;;;;4857757;29;20083;-80
2023/09/24 10:37:29;;;;;;;2.85;1.20;;;17.70;99.90;;;;;;4854020;29;20132;-80
2023/09/24 10:39:58;;;;;;;2.13;1.20;;;17.80;99.90;;;;;;4852021;29;20065;-80
2023/09/24 10:42:34;;;;;;;2.58;1.20;;;18.10;99.90;;;;;;4854809;29;20052;-80
2023/09/24 10:45:06;;;;;;;;;;;18.30;99.90;;;;;;4848215;29;20041;-80
2023/09/24 10:47:45;;;;;;;3.88;1.20;;;18.50;99.90;;;;;;4854567;29;20444;-80
2023/09/24 10:50:13;;;;;;;2.38;1.00;;;18.50;99.90;;;;;;4855095;29;20046;-81
2023/09/24 10:52:53;;;;;;;1.65;1.10;;;18.60;99.90;;;;;;4838837;29;20048;-85
2023/09/24 10:55:30;;;;;;;2.47;1.20;;;18.60;99.90;;;;;;4854440;29;20068;-79
2023/09/24 10:57:58;;;;;;;2.33;1.10;;;18.70;99.90;;;;;;4859965;29;20064;-79
2023/09/24 11:00:25;;;;;;;2.60;1.23;;;18.80;1.00;;;;;;4823811;29;20041;-78
2023/09/24 11:03:08;;;;;;;4.43;1.40;;;18.90;99.90;;;;;;4852671;29;20175;-79
2023/09/24 11:05:40;;;;;;;1.60;0.95;;;19.00;99.90;;;;;;4862513;29;20085;-79
2023/09/24 11:08:06;;;;;;;3.10;1.00;;;19.20;99.90;;;;;;4855666;29;20049;-80
2023/09/24 11:10:33;;;;;;;2.15;1.00;;;19.30;99.90;;;;;;4839960;29;20493;-79
2023/09/24 11:13:00;;;;;;;1.48;0.90;;;19.50;99.90;;;;;;4856742;29;20040;-79
2023/09/24 11:15:30;;;;;;;1.48;1.00;;;19.60;99.90;;;;;;4857446;29;20049;-80
2023/09/24 11:17:57;;;;;;;2.85;1.30;;;19.60;99.90;;;;;;4857952;29;20083;-80
2023/09/24 11:20:23;;;;;;;1.67;0.98;;;19.50;1.00;;;;;;4831423;29;20049;-79
2023/09/24 11:22:59;;;;;;;1.98;1.00;;;19.40;66.80;;;;;;4863371;29;20048;-80
2023/09/24 11:25:26;;;;;;;2.42;1.17;;;19.50;1.00;;;;;;4858452;29;20565;-80
2023/09/24 11:27:53;;;;;;;2.08;1.17;;;19.60;1.00;;;;;;4829069;29;20392;-80
2023/09/24 11:30:22;;;;;;;2.50;1.00;;;19.60;1.00;;;;;;4863073;29;20059;-81
2023/09/24 11:32:50;;;;;;;2.65;0.98;;;19.60;99.90;;;;;;4862731;29;20060;-80
2023/09/24 11:35:25;;;;;;;1.83;1.00;;;19.80;86.60;;;;;;4862374;29;20049;-80
2023/09/24 11:37:59;;;;;;;1.27;0.90;;;20.00;1.00;;;;;;4850290;29;20041;-80
2023/09/24 11:40:31;;;;;;;1.58;1.00;;;20.20;22.80;;;;;;4860117;29;20056;-80
2023/09/24 11:43:00;;;;;;;2.03;0.90;;;20.40;1.00;;;;;;4863092;29;20037;-80
2023/09/24 11:45:48;;;;;;;2.67;1.23;;;20.40;99.90;;;;;;4862263;29;20053;-81
2023/09/24 11:48:18;;;;;;;2.58;1.30;;;20.30;73.80;;;;;;4862900;29;20469;-80
2023/09/24 11:50:52;;;;;;;2.20;1.00;;;20.20;46.30;;;;;;4859709;29;20048;-80
2023/09/24 11:53:23;;;;;;;1.30;0.80;;;20.20;99.90;;;;;;4862789;29;20144;-81
2023/09/24 11:55:50;;;;;;;5.43;1.30;;;20.30;99.90;;;;;;4844910;29;20525;-80
2023/09/24 11:58:21;;;;;;;1.92;0.95;;;20.30;1.00;;;;;;4850005;29;20041;-80
2023/09/24 12:00:47;;;;;;;1.73;0.90;;;20.20;1.00;;;;;;4859885;29;20084;-81
2023/09/24 12:03:14;;;;;;;1.98;0.85;;;20.10;99.90;;;;;;4860456;29;20048;-80
2023/09/24 12:05:44;;;;;;;2.33;1.30;;;20.10;99.90;;;;;;4861902;29;20421;-79
2023/09/24 12:08:10;;;;;;;2.10;1.20;;;20.10;99.90;;;;;;4859942;29;20412;-80
2023/09/24 12:10:38;;;;;;;2.15;1.05;;;19.80;1.00;;;;;;4862206;29;20108;-79
2023/09/24 12:13:05;;;;;;;1.90;0.95;;;19.70;99.90;;;;;;4844528;29;20189;-80
2023/09/24 12:15:32;;;;;;;2.50;1.20;;;19.70;54.40;;;;;;4862706;29;20370;-80
2023/09/24 12:17:59;;;;;;;2.17;1.00;;;19.80;99.90;;;;;;4858489;29;20049;-81
2023/09/24 12:20:25;;;;;;;2.03;1.05;;;20.00;99.90;;;;;;4856163;29;20040;-81
2023/09/24 12:22:51;;;;;;;2.88;1.38;;;20.20;1.00;;;;;;4841469;29;20049;-79
2023/09/24 12:25:17;;;;;;;2.00;1.00;;;20.30;99.90;;;;;;4853596;29;20081;-80
2023/09/24 12:27:43;;;;;;;3.00;0.95;;;20.60;3.90;;;;;;4862494;29;20057;-80
2023/09/24 12:30:11;;;;;;;1.52;0.90;;;20.90;1.00;;;;;;4836556;29;20399;-81
2023/09/24 12:32:46;;;;;;;2.53;1.08;;;21.00;77.00;;;;;;4837407;29;20493;-81
2023/09/24 12:35:13;;;;;;;2.05;1.10;;;21.10;1.00;;;;;;4846856;29;20049;-82
2023/09/24 12:37:39;;;;;;;1.70;0.82;;;20.80;1.00;;;;;;4852910;29;20096;-81
2023/09/24 12:40:08;;;;;;;2.20;1.00;;;21.00;99.90;;;;;;4867690;29;20069;-82
2023/09/24 12:42:38;;;;;;;1.92;1.00;;;21.10;48.30;;;;;;4849079;29;20702;-81
2023/09/24 12:45:06;;;;;;;1.92;1.13;;;21.10;99.90;;;;;;4852810;29;20060;-83
2023/09/24 12:47:33;;;;;;;2.10;0.80;;;21.10;1.00;;;;;;4845182;29;20081;-80
2023/09/24 12:50:01;;;;;;;0.95;0.70;;;21.20;99.90;;;;;;4841019;29;20041;-81
2023/09/24 12:52:33;;;;;;;1.40;0.60;;;21.10;99.90;;;;;;4847777;29;20045;-81
2023/09/24 12:55:00;;;;;;;1.73;0.88;;;21.10;1.00;;;;;;4848894;29;20520;-81
2023/09/24 12:57:25;;;;;;;1.02;0.70;;;21.00;99.90;;;;;;4842621;29;20049;-80
2023/09/24 12:59:51;;;;;;;0.75;0.70;;;20.90;1.00;;;;;;4850937;29;20044;-81